This is the latest recevied weather packets stored in our database for station/object KD7DVD-1. If no packets are shown the sender has not sent any weather packets the latest 10 day(s).
| Time | Temp. | Humidity | Pressure | Rain* | Wind** | Luminosity | Snow |
|---|---|---|---|---|---|---|---|
| 1777359615 | 8.33° C | 86% | 1019.3 hPa | 0 mm | - | - | - |
| 1777357816 | 8.33° C | 85% | 1019.1 hPa | 0 mm | - | - | - |
| 1777356017 | 8.89° C | 82% | 1019 hPa | 0 mm | - | - | - |
| 1777354216 | 9.44° C | 79% | 1019 hPa | 0 mm | - | - | - |
| 1777352416 | 10.56° C | 76% | 1018.8 hPa | 0 mm | - | - | - |
| 1777350616 | 11.11° C | 75% | 1018.5 hPa | 0 mm | - | - | - |
| 1777348816 | 11.67° C | 73% | 1018.1 hPa | 0 mm | - | - | - |
| 1777347016 | 12.22° C | 72% | 1017.7 hPa | 0 mm | - | - | - |
| 1777345216 | 12.78° C | 73% | 1017.4 hPa | 0 mm | - | - | - |
| 1777343416 | 13.33° C | 73% | 1017.3 hPa | 0 mm | - | - | - |
| 1777341616 | 13.89° C | 71% | 1017.2 hPa | 0 mm | - | - | - |
| 1777339816 | 14.44° C | 70% | 1017 hPa | 0 mm | - | - | - |
| 1777338016 | 14.44° C | 72% | 1016.9 hPa | 0 mm | - | - | - |
| 1777336216 | 15° C | 70% | 1016.9 hPa | 0 mm | - | - | - |
| 1777334416 | 15° C | 70% | 1016.7 hPa | 0 mm | - | - | - |
| 1777332616 | 15° C | 69% | 1016.7 hPa | 0 mm | - | - | - |
| 1777330816 | 15° C | 68% | 1016.6 hPa | 0 mm | - | - | - |
| 1777329016 | 15° C | 69% | 1016.6 hPa | 0 mm | - | - | - |
| 1777327216 | 15° C | 67% | 1016.5 hPa | 0 mm | - | - | - |
| 1777325417 | 15° C | 68% | 1016.4 hPa | 0 mm | - | - | - |
| 1777323617 | 14.44° C | 69% | 1016.3 hPa | 0 mm | - | - | - |
| 1777321817 | 14.44° C | 69% | 1016.2 hPa | 0 mm | - | - | - |
| 1777320017 | 14.44° C | 69% | 1016.2 hPa | 0 mm | - | - | - |
| 1777318217 | 13.89° C | 72% | 1016.5 hPa | 0 mm | - | - | - |
| 1777316417 | 13.33° C | 74% | 1016.7 hPa | 0 mm | - | - | - |
* Rain latest hour (hover to see other rain measurements)
** Current wind speed in m/s (hover to see current wind gust speed)